Time;durP1;ratioP1;P1;durP2;ratioP2;P2;SDS_P1;SDS_P2;PMS_P1;PMS_P2;Temp;Humidity;BMP_temperature;BMP_pressure;BME280_temperature;BME280_humidity;BME280_pressure;Samples;Min_cycle;Max_cycle;Signal;HPM_P1;HPM_P2
2022/08/09 00:01:26;;;;;;;9.18;8.27;;;;;;;;;;5074538;28;20174;-78
2022/08/09 00:03:52;;;;;;;8.00;7.20;;;;;;;;;;5074590;28;20028;-79
2022/08/09 00:06:18;;;;;;;12.90;8.07;;;;;;;;;;5074522;28;20043;-80
2022/08/09 00:08:49;;;;;;;8.65;7.75;;;;;;;;;;5073575;28;20100;-79
2022/08/09 00:11:15;;;;;;;8.43;7.55;;;;;;;;;;5074361;28;20037;-79
2022/08/09 00:13:42;;;;;;;8.38;7.57;;;;;;;;;;5074182;28;20068;-81
2022/08/09 00:16:08;;;;;;;8.43;7.63;;;;;;;;;;5074395;28;20435;-82
2022/08/09 00:18:34;;;;;;;9.05;8.13;;;;;;;;;;5074181;28;20039;-81
2022/08/09 00:21:03;;;;;;;9.73;8.30;;;;;;;;;;5074146;28;20035;-78
2022/08/09 00:23:29;;;;;;;9.20;8.40;;;;;;;;;;5074121;28;20368;-80
2022/08/09 00:25:55;;;;;;;9.35;8.45;;;;;;;;;;5074079;28;20033;-77
2022/08/09 00:28:22;;;;;;;9.18;8.38;;;;;;;;;;5074096;28;20560;-81
2022/08/09 00:30:48;;;;;;;9.07;8.18;;;;;;;;;;5073893;28;20086;-80
2022/08/09 00:33:15;;;;;;;9.15;8.35;;;;;;;;;;5073891;28;20041;-80
2022/08/09 00:35:41;;;;;;;8.75;7.95;;;;;;;;;;5073902;28;20032;-79
2022/08/09 00:38:11;;;;;;;8.73;8.02;;;;;;;;;;5073841;28;20029;-83
2022/08/09 00:40:37;;;;;;;8.32;7.53;;;;;;;;;;5073798;28;20056;-80
2022/08/09 00:43:03;;;;;;;9.60;8.63;;;;;;;;;;5055777;28;20391;-79
2022/08/09 00:45:29;;;;;;;9.77;8.88;;;;;;;;;;5073726;28;20035;-79
2022/08/09 00:47:55;;;;;;;9.90;9.00;;;;;;;;;;5055891;28;20033;-79
2022/08/09 00:50:22;;;;;;;9.30;8.57;;;;;;;;;;5073700;28;20032;-78
2022/08/09 00:52:48;;;;;;;10.32;9.40;;;;;;;;;;5073549;28;20123;-81
2022/08/09 00:55:15;;;;;;;9.40;8.05;;;;;;;;;;5073616;28;20033;-80
2022/08/09 00:57:41;;;;;;;9.52;8.63;;;;;;;;;;5073475;28;20037;-80
2022/08/09 01:00:08;;;;;;;9.18;8.38;;;;;;;;;;5073599;28;20036;-77
2022/08/09 01:02:37;;;;;;;10.68;9.68;;;;;;;;;;5073587;28;20039;-78
2022/08/09 01:05:07;;;;;;;9.65;8.75;;;;;;;;;;5073392;28;20040;-81
2022/08/09 01:07:36;;;;;;;10.07;9.10;;;;;;;;;;5055505;28;20544;-78
2022/08/09 01:10:04;;;;;;;10.02;9.13;;;;;;;;;;5073558;28;20037;-81
2022/08/09 01:12:31;;;;;;;8.68;7.97;;;;;;;;;;5073339;28;20487;-81
2022/08/09 01:15:05;;;;;;;11.00;9.43;;;;;;;;;;5073425;28;20032;-78
2022/08/09 01:17:33;;;;;;;10.63;9.52;;;;;;;;;;5073379;28;20029;-80
2022/08/09 01:20:01;;;;;;;9.13;8.32;;;;;;;;;;5073092;28;20536;-81
2022/08/09 01:22:36;;;;;;;10.40;9.55;;;;;;;;;;5073329;28;20106;-80
2022/08/09 01:25:02;;;;;;;10.18;9.38;;;;;;;;;;5073172;28;20598;-78
2022/08/09 01:27:30;;;;;;;10.32;8.90;;;;;;;;;;5073309;28;20393;-77
2022/08/09 01:29:58;;;;;;;10.80;9.70;;;;;;;;;;5073271;28;20475;-80
2022/08/09 01:32:43;;;;;;;10.57;9.48;;;;;;;;;;5073158;28;20400;-81
2022/08/09 01:35:27;;;;;;;10.02;9.10;;;;;;;;;;5073177;28;20531;-79
2022/08/09 01:37:56;;;;;;;9.80;8.80;;;;;;;;;;5073151;28;20033;-77
2022/08/09 01:40:24;;;;;;;9.60;8.60;;;;;;;;;;5073117;28;20042;-79
2022/08/09 01:42:50;;;;;;;10.85;9.85;;;;;;;;;;5055194;28;20523;-81
2022/08/09 01:45:17;;;;;;;10.45;9.40;;;;;;;;;;5073065;28;20028;-79
2022/08/09 01:47:44;;;;;;;9.50;8.70;;;;;;;;;;5073085;28;20035;-81
2022/08/09 01:50:11;;;;;;;9.52;8.63;;;;;;;;;;5073166;28;20024;-80
2022/08/09 01:52:38;;;;;;;9.18;8.35;;;;;;;;;;5072934;28;20036;-80
2022/08/09 01:55:05;;;;;;;10.15;8.93;;;;;;;;;;5055129;28;20033;-80
2022/08/09 01:57:36;;;;;;;9.63;8.75;;;;;;;;;;5072989;28;20035;-78
2022/08/09 02:00:04;;;;;;;9.52;8.63;;;;;;;;;;5072971;28;20033;-79
2022/08/09 02:02:32;;;;;;;10.35;9.35;;;;;;;;;;5055183;28;20357;-80
2022/08/09 02:05:04;;;;;;;9.77;8.77;;;;;;;;;;5073066;28;20037;-78
2022/08/09 02:07:31;;;;;;;11.30;9.25;;;;;;;;;;5072928;28;20028;-77
2022/08/09 02:10:00;;;;;;;9.90;9.00;;;;;;;;;;5072844;28;20036;-78
2022/08/09 02:12:28;;;;;;;9.80;8.90;;;;;;;;;;5072789;28;20037;-78
2022/08/09 02:14:54;;;;;;;10.38;9.45;;;;;;;;;;5072798;28;20033;-80
2022/08/09 02:17:26;;;;;;;10.50;9.52;;;;;;;;;;5072791;28;20036;-80
2022/08/09 02:19:53;;;;;;;11.27;10.15;;;;;;;;;;5072805;28;20472;-80
2022/08/09 02:22:37;;;;;;;10.30;9.38;;;;;;;;;;5072771;28;20606;-77
2022/08/09 02:25:07;;;;;;;10.80;9.80;;;;;;;;;;5072721;28;20081;-79
2022/08/09 02:27:34;;;;;;;10.07;9.05;;;;;;;;;;5054721;28;20162;-78
2022/08/09 02:30:00;;;;;;;10.85;9.77;;;;;;;;;;5072704;28;20035;-80
2022/08/09 02:32:27;;;;;;;11.02;9.63;;;;;;;;;;5073852;28;20127;-81
2022/08/09 02:35:02;;;;;;;12.55;11.18;;;;;;;;;;5076262;28;20043;-80
2022/08/09 02:37:30;;;;;;;11.23;9.82;;;;;;;;;;5076213;28;20028;-79
2022/08/09 02:39:59;;;;;;;11.80;10.68;;;;;;;;;;5076178;28;20032;-81
2022/08/09 02:42:31;;;;;;;11.88;10.77;;;;;;;;;;5076065;28;20040;-78
2022/08/09 02:45:17;;;;;;;11.90;10.88;;;;;;;;;;5076111;28;20380;-80
2022/08/09 02:47:44;;;;;;;12.63;11.35;;;;;;;;;;5075891;28;20032;-79
2022/08/09 02:50:12;;;;;;;12.32;11.02;;;;;;;;;;5075844;28;20563;-80
2022/08/09 02:52:50;;;;;;;12.15;11.05;;;;;;;;;;5075766;28;20115;-80
2022/08/09 02:55:17;;;;;;;12.05;11.00;;;;;;;;;;5075872;28;20033;-79
2022/08/09 02:57:43;;;;;;;11.20;10.13;;;;;;;;;;5075781;28;20041;-78
2022/08/09 03:00:10;;;;;;;11.55;10.50;;;;;;;;;;5075860;28;20033;-78
2022/08/09 03:02:38;;;;;;;11.45;10.23;;;;;;;;;;5057838;28;20461;-81
2022/08/09 03:05:05;;;;;;;10.65;9.65;;;;;;;;;;5075743;28;20031;-78
2022/08/09 03:07:32;;;;;;;11.68;10.57;;;;;;;;;;5075633;28;20029;-80
2022/08/09 03:09:59;;;;;;;10.80;9.80;;;;;;;;;;5057709;28;20036;-79
2022/08/09 03:12:26;;;;;;;11.48;10.40;;;;;;;;;;5075371;28;20452;-80
2022/08/09 03:14:53;;;;;;;11.65;10.45;;;;;;;;;;5075466;28;20043;-76
2022/08/09 03:17:19;;;;;;;11.00;9.90;;;;;;;;;;5075539;28;20036;-76
2022/08/09 03:19:46;;;;;;;10.27;9.27;;;;;;;;;;5075399;28;20033;-78
2022/08/09 03:22:12;;;;;;;11.10;10.10;;;;;;;;;;5075473;28;20044;-80
2022/08/09 03:24:38;;;;;;;11.07;9.98;;;;;;;;;;5075346;28;20032;-81
2022/08/09 03:27:06;;;;;;;12.10;10.80;;;;;;;;;;5075431;28;20031;-78
2022/08/09 03:29:32;;;;;;;11.23;10.23;;;;;;;;;;5075317;28;20055;-80
2022/08/09 03:31:58;;;;;;;11.52;10.38;;;;;;;;;;5074890;28;20052;-77
2022/08/09 03:34:24;;;;;;;11.38;10.25;;;;;;;;;;5075193;28;20083;-79
2022/08/09 03:36:51;;;;;;;11.70;10.50;;;;;;;;;;5075167;28;20542;-81
2022/08/09 03:39:17;;;;;;;13.15;10.95;;;;;;;;;;5074997;28;20484;-81
2022/08/09 03:41:43;;;;;;;11.57;10.45;;;;;;;;;;5075082;28;20065;-77
2022/08/09 03:44:09;;;;;;;11.77;10.13;;;;;;;;;;5074807;28;20490;-77
2022/08/09 03:46:35;;;;;;;10.93;9.93;;;;;;;;;;5075103;28;20059;-76
2022/08/09 03:49:02;;;;;;;11.18;9.90;;;;;;;;;;5074487;28;20028;-77
2022/08/09 03:51:29;;;;;;;11.32;10.30;;;;;;;;;;5073815;28;20032;-77
2022/08/09 03:53:55;;;;;;;13.07;9.10;;;;;;;;;;5074166;28;20400;-77
2022/08/09 03:56:22;;;;;;;11.88;10.63;;;;;;;;;;5074404;28;20029;-80
2022/08/09 03:58:48;;;;;;;11.25;9.60;;;;;;;;;;5074636;28;20037;-79
2022/08/09 04:01:14;;;;;;;16.05;14.35;;;;;;;;;;5074145;28;20480;-81
2022/08/09 04:03:40;;;;;;;12.35;10.20;;;;;;;;;;5074595;28;20066;-80
2022/08/09 04:06:07;;;;;;;12.10;8.88;;;;;;;;;;5074529;28;20037;-80
2022/08/09 04:08:33;;;;;;;10.95;8.02;;;;;;;;;;5074283;28;20036;-78
2022/08/09 04:10:59;;;;;;;12.50;11.07;;;;;;;;;;5074409;28;20057;-79
2022/08/09 04:13:25;;;;;;;18.88;11.73;;;;;;;;;;5073845;28;20557;-77
2022/08/09 04:15:52;;;;;;;11.68;10.50;;;;;;;;;;5074246;28;20036;-81
2022/08/09 04:18:18;;;;;;;9.35;8.38;;;;;;;;;;5074288;28;20041;-80
2022/08/09 04:20:46;;;;;;;19.90;14.73;;;;;;;;;;5074243;28;20097;-83
2022/08/09 04:23:12;;;;;;;11.73;7.40;;;;;;;;;;5055809;28;20395;-77
2022/08/09 04:25:38;;;;;;;11.40;7.45;;;;;;;;;;5074086;28;20029;-80
2022/08/09 04:28:05;;;;;;;9.32;7.95;;;;;;;;;;5074086;28;20028;-80
2022/08/09 04:30:31;;;;;;;10.32;8.80;;;;;;;;;;5073815;28;20039;-77
2022/08/09 04:32:58;;;;;;;11.07;7.82;;;;;;;;;;5073555;28;20048;-78
2022/08/09 04:35:25;;;;;;;8.15;6.28;;;;;;;;;;5073387;28;20028;-78
2022/08/09 04:37:51;;;;;;;13.52;11.93;;;;;;;;;;5073947;28;20554;-76
2022/08/09 04:40:17;;;;;;;15.32;13.52;;;;;;;;;;5073828;28;20116;-76
2022/08/09 04:42:43;;;;;;;11.90;10.68;;;;;;;;;;5072675;28;20064;-76
2022/08/09 04:45:09;;;;;;;8.60;6.45;;;;;;;;;;5073675;28;20454;-76
2022/08/09 04:47:35;;;;;;;7.00;6.35;;;;;;;;;;5073673;28;20033;-76
2022/08/09 04:50:02;;;;;;;7.35;6.38;;;;;;;;;;5073621;28;20476;-76
2022/08/09 04:52:28;;;;;;;8.30;6.55;;;;;;;;;;5073289;28;20044;-77
2022/08/09 04:54:55;;;;;;;9.38;7.05;;;;;;;;;;5055298;28;20438;-77
2022/08/09 04:57:22;;;;;;;8.52;6.70;;;;;;;;;;5073514;28;20395;-76
2022/08/09 04:59:48;;;;;;;6.78;6.18;;;;;;;;;;5073543;28;20098;-81
2022/08/09 05:02:14;;;;;;;7.88;6.80;;;;;;;;;;5055217;28;20064;-77
2022/08/09 05:04:41;;;;;;;9.35;7.00;;;;;;;;;;5071986;28;20028;-78
2022/08/09 05:07:07;;;;;;;7.95;6.57;;;;;;;;;;5072983;28;20032;-82
2022/08/09 05:09:33;;;;;;;10.38;6.70;;;;;;;;;;5073333;28;20025;-82
2022/08/09 05:11:59;;;;;;;7.53;6.82;;;;;;;;;;5073472;28;20032;-78
2022/08/09 05:14:25;;;;;;;10.38;6.60;;;;;;;;;;5073426;28;20031;-78
2022/08/09 05:16:51;;;;;;;7.72;6.10;;;;;;;;;;5038897;28;20081;-77
2022/08/09 05:19:20;;;;;;;6.72;6.00;;;;;;;;;;5072805;28;20033;-74
2022/08/09 05:21:50;;;;;;;7.60;6.10;;;;;;;;;;5071939;28;20041;-76
2022/08/09 05:24:16;;;;;;;6.88;5.88;;;;;;;;;;5058212;28;20051;-76
2022/08/09 05:26:42;;;;;;;7.15;5.38;;;;;;;;;;5071101;28;20024;-77
2022/08/09 05:29:09;;;;;;;8.80;5.40;;;;;;;;;;5070104;28;20476;-77
2022/08/09 05:31:35;;;;;;;6.78;5.72;;;;;;;;;;5070123;28;20056;-80
2022/08/09 05:34:01;;;;;;;7.40;5.47;;;;;;;;;;5067239;28;20521;-80
2022/08/09 05:36:27;;;;;;;7.30;5.25;;;;;;;;;;5072205;28;20029;-77
2022/08/09 05:38:53;;;;;;;7.13;4.97;;;;;;;;;;5052571;28;20064;-76
2022/08/09 05:41:19;;;;;;;5.53;4.97;;;;;;;;;;5051789;28;20407;-76
2022/08/09 05:43:45;;;;;;;5.85;5.00;;;;;;;;;;5050904;28;20033;-77
2022/08/09 05:46:14;;;;;;;5.43;4.50;;;;;;;;;;5071800;28;20456;-76
2022/08/09 05:48:40;;;;;;;6.78;4.88;;;;;;;;;;5071887;28;20031;-76
2022/08/09 05:51:06;;;;;;;8.27;4.68;;;;;;;;;;5071482;28;20111;-77
2022/08/09 05:53:32;;;;;;;7.57;4.20;;;;;;;;;;5071381;28;20041;-78
2022/08/09 05:55:59;;;;;;;7.13;4.45;;;;;;;;;;5071165;28;20051;-77
2022/08/09 05:58:25;;;;;;;7.10;4.30;;;;;;;;;;5064718;28;20538;-77
2022/08/09 06:00:51;;;;;;;5.85;4.07;;;;;;;;;;5071750;28;20087;-76
2022/08/09 06:03:17;;;;;;;5.65;4.60;;;;;;;;;;5071340;28;20037;-77
2022/08/09 06:05:43;;;;;;;8.27;5.20;;;;;;;;;;5072030;28;20033;-78
2022/08/09 06:08:09;;;;;;;6.93;5.45;;;;;;;;;;5074401;28;20467;-76
2022/08/09 06:10:39;;;;;;;5.65;5.07;;;;;;;;;;5075681;28;20037;-77
2022/08/09 06:13:05;;;;;;;5.88;3.80;;;;;;;;;;5075251;28;20044;-77
2022/08/09 06:15:32;;;;;;;7.97;4.40;;;;;;;;;;5075183;28;20029;-79
2022/08/09 06:17:58;;;;;;;7.93;6.50;;;;;;;;;;5074664;28;20391;-77
2022/08/09 06:20:24;;;;;;;5.35;4.85;;;;;;;;;;5074189;28;20032;-79
2022/08/09 06:22:50;;;;;;;6.60;5.60;;;;;;;;;;5075539;28;20037;-76
2022/08/09 06:25:16;;;;;;;7.10;4.72;;;;;;;;;;5057161;28;20071;-79
2022/08/09 06:27:42;;;;;;;6.28;4.40;;;;;;;;;;5075423;28;20025;-78
2022/08/09 06:30:09;;;;;;;5.00;4.57;;;;;;;;;;5056937;28;20048;-76
2022/08/09 06:32:35;;;;;;;5.15;3.95;;;;;;;;;;5074350;28;20056;-78
2022/08/09 06:35:01;;;;;;;5.32;4.60;;;;;;;;;;5072934;28;20092;-77
2022/08/09 06:37:27;;;;;;;5.68;4.05;;;;;;;;;;5056134;28;20112;-78
2022/08/09 06:39:53;;;;;;;5.22;4.65;;;;;;;;;;5054281;28;20033;-77
2022/08/09 06:42:20;;;;;;;8.02;5.07;;;;;;;;;;5053717;28;20056;-78
2022/08/09 06:44:47;;;;;;;7.47;4.50;;;;;;;;;;5069868;28;20115;-77
2022/08/09 06:47:13;;;;;;;6.10;4.30;;;;;;;;;;5071266;28;20080;-78
2022/08/09 06:49:39;;;;;;;7.70;4.55;;;;;;;;;;5055050;28;20021;-77
2022/08/09 06:52:05;;;;;;;7.38;4.38;;;;;;;;;;5054223;28;20130;-78
2022/08/09 06:54:32;;;;;;;5.57;3.67;;;;;;;;;;5054952;28;20033;-77
2022/08/09 06:56:58;;;;;;;6.82;4.35;;;;;;;;;;5061406;28;20037;-78
2022/08/09 06:59:24;;;;;;;6.10;3.53;;;;;;;;;;5059940;28;20510;-77
2022/08/09 07:01:50;;;;;;;4.43;4.03;;;;;;;;;;5054777;28;20033;-79
2022/08/09 07:04:16;;;;;;;7.35;3.65;;;;;;;;;;5054490;28;20167;-78
2022/08/09 07:06:42;;;;;;;5.05;3.50;;;;;;;;;;5054607;28;20103;-82
2022/08/09 07:09:08;;;;;;;6.30;3.90;;;;;;;;;;5036854;28;20044;-78
2022/08/09 07:11:34;;;;;;;6.03;3.95;;;;;;;;;;5065806;28;20119;-79
2022/08/09 07:14:00;;;;;;;4.85;3.97;;;;;;;;;;5074001;28;20055;-79
2022/08/09 07:16:27;;;;;;;5.70;4.20;;;;;;;;;;5055270;28;20036;-77
2022/08/09 07:18:53;;;;;;;4.30;3.90;;;;;;;;;;5055007;28;20041;-77
2022/08/09 07:21:19;;;;;;;7.07;4.70;;;;;;;;;;5073679;28;20033;-80
2022/08/09 07:23:45;;;;;;;6.13;5.03;;;;;;;;;;5050135;28;20028;-79
2022/08/09 07:26:11;;;;;;;5.43;4.10;;;;;;;;;;5072150;28;20444;-78
2022/08/09 07:28:37;;;;;;;4.85;4.13;;;;;;;;;;5073832;28;20099;-81
2022/08/09 07:31:04;;;;;;;8.48;7.07;;;;;;;;;;5072167;28;20537;-77
2022/08/09 07:33:31;;;;;;;5.25;4.43;;;;;;;;;;5073625;28;20102;-77
2022/08/09 07:35:57;;;;;;;6.50;4.18;;;;;;;;;;5074137;28;20032;-76
2022/08/09 07:49:28;;;;;;;5.90;3.80;;;;;;;;;;5240712;22;1436881;-79
2022/08/09 07:51:54;;;;;;;4.95;3.97;;;;;;;;;;5107174;28;20085;-80
2022/08/09 07:54:20;;;;;;;3.85;3.35;;;;;;;;;;5109198;28;20028;-80
2022/08/09 07:56:46;;;;;;;4.07;3.67;;;;;;;;;;5109786;28;20452;-78
2022/08/09 07:59:12;;;;;;;16.05;4.95;;;;;;;;;;5109031;28;20046;-81
2022/08/09 08:01:38;;;;;;;3.78;3.47;;;;;;;;;;5120403;28;20035;-80
2022/08/09 08:04:05;;;;;;;10.40;8.02;;;;;;;;;;5130170;28;20388;-79
2022/08/09 08:06:31;;;;;;;3.80;3.40;;;;;;;;;;5114199;28;20563;-79
2022/08/09 08:08:57;;;;;;;6.47;4.90;;;;;;;;;;5115484;28;20055;-81
2022/08/09 08:11:23;;;;;;;4.95;4.43;;;;;;;;;;5124714;28;20016;-83
2022/08/09 08:13:49;;;;;;;4.65;3.47;;;;;;;;;;5130223;28;20028;-81
2022/08/09 08:16:15;;;;;;;11.23;9.05;;;;;;;;;;5109668;28;20401;-70
2022/08/09 08:18:41;;;;;;;4.65;3.60;;;;;;;;;;5129828;28;20508;-82
2022/08/09 08:21:08;;;;;;;4.40;3.67;;;;;;;;;;5130152;28;20065;-79
2022/08/09 08:23:34;;;;;;;5.15;3.60;;;;;;;;;;5129328;28;20449;-79
2022/08/09 08:26:00;;;;;;;6.15;3.60;;;;;;;;;;5129369;28;20024;-82
2022/08/09 08:28:27;;;;;;;4.22;3.67;;;;;;;;;;5129532;28;20039;-80
2022/08/09 08:30:53;;;;;;;4.18;3.78;;;;;;;;;;5129417;28;20471;-82
2022/08/09 08:46:31;;;;;;;4.95;4.10;;;;;;;;;;5358057;22;20379;-76
2022/08/09 08:48:58;;;;;;;5.07;3.80;;;;;;;;;;5124414;28;20123;-78
2022/08/09 08:51:24;;;;;;;3.85;3.50;;;;;;;;;;5125619;28;20683;-77
2022/08/09 08:53:53;;;;;;;4.68;3.90;;;;;;;;;;5102928;28;20042;-76
2022/08/09 08:56:20;;;;;;;5.88;4.40;;;;;;;;;;5108141;28;20030;-76
2022/08/09 08:58:47;;;;;;;6.50;4.28;;;;;;;;;;5104388;28;20027;-75
2022/08/09 09:01:13;;;;;;;5.10;3.95;;;;;;;;;;5111904;28;20050;-77
2022/08/09 09:03:40;;;;;;;5.85;4.70;;;;;;;;;;5118030;27;20035;-77
2022/08/09 09:06:07;;;;;;;6.10;4.97;;;;;;;;;;5095571;28;20025;-79
2022/08/09 09:08:35;;;;;;;5.95;5.25;;;;;;;;;;5092252;28;20028;-78
2022/08/09 09:11:02;;;;;;;5.63;4.40;;;;;;;;;;5098645;28;20047;-78
2022/08/09 09:13:29;;;;;;;4.60;4.20;;;;;;;;;;5101255;28;20063;-79
2022/08/09 09:15:55;;;;;;;7.05;5.40;;;;;;;;;;5109410;27;20369;-79
2022/08/09 09:18:21;;;;;;;6.43;5.07;;;;;;;;;;5107619;28;20106;-77
2022/08/09 09:20:47;;;;;;;6.43;4.22;;;;;;;;;;5111575;27;20064;-77
2022/08/09 09:23:13;;;;;;;4.68;4.28;;;;;;;;;;5112318;27;20486;-78
2022/08/09 09:25:41;;;;;;;6.35;4.38;;;;;;;;;;5107548;28;20020;-78
2022/08/09 09:28:08;;;;;;;5.07;4.10;;;;;;;;;;5115932;28;20515;-80
2022/08/09 09:30:35;;;;;;;10.30;5.38;;;;;;;;;;5129409;28;20419;-80
2022/08/09 09:33:11;;;;;;;6.72;4.07;;;;;;;;;;5129236;27;20106;-78
2022/08/09 09:35:50;;;;;;;4.03;3.47;;;;;;;;;;5129058;28;20031;-79
2022/08/09 09:38:17;;;;;;;18.65;16.58;;;;;;;;;;5128976;27;20085;-79
2022/08/09 09:40:44;;;;;;;4.88;4.20;;;;;;;;;;5121792;28;20090;-78
2022/08/09 09:43:16;;;;;;;5.63;5.13;;;;;;;;;;5108289;28;20027;-78
2022/08/09 09:45:47;;;;;;;3.58;3.28;;;;;;;;;;5104222;28;20028;-81
2022/08/09 09:48:13;;;;;;;5.03;3.58;;;;;;;;;;5115084;28;20547;-80
2022/08/09 09:50:58;;;;;;;4.60;3.72;;;;;;;;;;5115413;28;20062;-79
2022/08/09 09:53:26;;;;;;;4.50;3.95;;;;;;;;;;5114920;28;20031;-79
2022/08/09 09:55:56;;;;;;;11.48;10.30;;;;;;;;;;5115218;28;20576;-79
2022/08/09 09:58:23;;;;;;;6.90;5.63;;;;;;;;;;5083709;28;20032;-81
2022/08/09 10:00:51;;;;;;;5.30;3.80;;;;;;;;;;5095192;28;20028;-79
2022/08/09 10:03:17;;;;;;;4.45;3.95;;;;;;;;;;5098012;28;20532;-81
2022/08/09 10:05:56;;;;;;;5.25;3.45;;;;;;;;;;5096171;28;20508;-80
2022/08/09 10:08:23;;;;;;;4.47;3.90;;;;;;;;;;5100841;28;20024;-78
2022/08/09 10:10:49;;;;;;;4.65;3.53;;;;;;;;;;5100130;28;20032;-81
2022/08/09 10:13:16;;;;;;;3.63;2.90;;;;;;;;;;5096573;28;20024;-80
2022/08/09 10:16:01;;;;;;;5.93;4.72;;;;;;;;;;5101803;28;20098;-80
2022/08/09 10:18:27;;;;;;;5.78;3.83;;;;;;;;;;5090484;28;20089;-80
2022/08/09 10:20:53;;;;;;;5.75;5.10;;;;;;;;;;5102876;28;20045;-81
2022/08/09 10:23:24;;;;;;;4.30;3.90;;;;;;;;;;5104800;28;20069;-81
2022/08/09 10:25:50;;;;;;;3.78;3.08;;;;;;;;;;5099633;28;20440;-79
2022/08/09 10:28:16;;;;;;;4.60;2.97;;;;;;;;;;5098151;28;20030;-82
2022/08/09 10:30:43;;;;;;;4.68;2.80;;;;;;;;;;5097306;28;20040;-82
2022/08/09 10:33:09;;;;;;;5.05;3.38;;;;;;;;;;5098889;28;20016;-80
2022/08/09 10:35:35;;;;;;;7.50;6.80;;;;;;;;;;5098627;28;20440;-79
2022/08/09 10:38:02;;;;;;;3.92;2.83;;;;;;;;;;5102719;28;20023;-80
2022/08/09 10:40:28;;;;;;;6.75;3.28;;;;;;;;;;5103478;28;20023;-80
2022/08/09 10:42:54;;;;;;;6.38;3.78;;;;;;;;;;5099702;28;20035;-80
2022/08/09 10:45:22;;;;;;;6.45;5.70;;;;;;;;;;5098500;28;20059;-79
2022/08/09 10:48:07;;;;;;;4.53;3.38;;;;;;;;;;5093653;28;20513;-79
2022/08/09 10:53:56;;;;;;;4.80;4.40;;;;;;;;;;5101360;28;20066;-79
2022/08/09 10:56:23;;;;;;;4.53;4.05;;;;;;;;;;5101956;28;20551;-79
2022/08/09 10:59:08;;;;;;;8.38;4.40;;;;;;;;;;5099139;28;20146;-79
2022/08/09 11:01:36;;;;;;;5.18;3.97;;;;;;;;;;5102752;28;20031;-78
2022/08/09 11:04:08;;;;;;;6.20;4.13;;;;;;;;;;5100394;28;20035;-79
2022/08/09 11:06:53;;;;;;;6.65;4.57;;;;;;;;;;5099508;28;20039;-78
2022/08/09 11:09:19;;;;;;;5.97;3.65;;;;;;;;;;5102828;28;20069;-78
2022/08/09 11:12:05;;;;;;;5.70;4.95;;;;;;;;;;5098027;28;20032;-80
2022/08/09 11:14:37;;;;;;;5.80;3.63;;;;;;;;;;5095888;28;20439;-81
2022/08/09 11:17:15;;;;;;;7.53;3.53;;;;;;;;;;5093173;28;20122;-80
2022/08/09 11:19:57;;;;;;;6.18;3.58;;;;;;;;;;5101464;28;20023;-79
2022/08/09 11:22:46;;;;;;;3.95;2.95;;;;;;;;;;5097792;28;20128;-80
2022/08/09 11:25:12;;;;;;;4.55;3.25;;;;;;;;;;5093150;28;20494;-81
2022/08/09 11:27:40;;;;;;;4.88;3.83;;;;;;;;;;5102736;28;20115;-78
2022/08/09 11:30:10;;;;;;;3.78;3.47;;;;;;;;;;5100510;28;20019;-80
2022/08/09 11:32:42;;;;;;;8.48;3.75;;;;;;;;;;5102529;28;20030;-80
2022/08/09 11:35:27;;;;;;;6.50;3.80;;;;;;;;;;5072213;28;20046;-80
2022/08/09 11:38:09;;;;;;;4.80;3.25;;;;;;;;;;5072593;28;20066;-77
2022/08/09 11:40:35;;;;;;;7.57;5.55;;;;;;;;;;5071536;28;20498;-82
2022/08/09 11:43:01;;;;;;;7.35;6.65;;;;;;;;;;5099450;28;20082;-80
2022/08/09 11:45:29;;;;;;;5.25;4.70;;;;;;;;;;5077024;28;20068;-83
2022/08/09 11:47:59;;;;;;;5.10;4.60;;;;;;;;;;5098689;28;20467;-79
2022/08/09 11:50:26;;;;;;;12.68;7.45;;;;;;;;;;5100140;28;20519;-79
2022/08/09 11:53:11;;;;;;;5.25;3.50;;;;;;;;;;5102170;28;20027;-82
2022/08/09 11:55:38;;;;;;;6.25;3.97;;;;;;;;;;5102842;28;20085;-81
2022/08/09 11:58:29;;;;;;;7.03;4.53;;;;;;;;;;5098698;28;20051;-80
2022/08/09 12:00:58;;;;;;;7.40;5.72;;;;;;;;;;5079681;28;20045;-79
2022/08/09 12:03:25;;;;;;;5.80;4.38;;;;;;;;;;5095106;28;20031;-80
2022/08/09 12:05:53;;;;;;;4.97;3.83;;;;;;;;;;5100265;28;20023;-79
2022/08/09 12:08:20;;;;;;;6.25;3.95;;;;;;;;;;5101227;28;20054;-78
2022/08/09 12:10:48;;;;;;;7.15;5.28;;;;;;;;;;5101227;28;20027;-79
2022/08/09 12:13:33;;;;;;;4.35;3.88;;;;;;;;;;5103028;28;20103;-79
2022/08/09 12:16:03;;;;;;;8.52;4.53;;;;;;;;;;5099433;28;20024;-80
2022/08/09 12:18:29;;;;;;;6.75;4.68;;;;;;;;;;5090653;28;20748;-80
2022/08/09 12:20:56;;;;;;;5.13;4.10;;;;;;;;;;5083775;28;20028;-80
2022/08/09 12:23:25;;;;;;;6.00;3.88;;;;;;;;;;5078395;28;20075;-74
2022/08/09 12:25:52;;;;;;;6.88;3.78;;;;;;;;;;5076775;28;20028;-80
2022/08/09 12:28:20;;;;;;;5.85;3.92;;;;;;;;;;5075469;28;20078;-79
2022/08/09 12:30:47;;;;;;;4.60;4.20;;;;;;;;;;5085428;28;20028;-81
2022/08/09 12:33:14;;;;;;;4.50;3.88;;;;;;;;;;5075221;28;20443;-85
2022/08/09 12:35:40;;;;;;;6.68;4.50;;;;;;;;;;5083098;28;20533;-82
2022/08/09 12:38:28;;;;;;;5.35;4.85;;;;;;;;;;5091897;28;20436;-83
2022/08/09 12:40:55;;;;;;;5.70;3.00;;;;;;;;;;5089386;28;20030;-84
2022/08/09 12:43:23;;;;;;;4.53;4.13;;;;;;;;;;5092415;28;20028;-81
2022/08/09 12:45:49;;;;;;;4.18;3.40;;;;;;;;;;5087535;28;20029;-82
2022/08/09 12:48:16;;;;;;;4.05;3.30;;;;;;;;;;5072627;28;20625;-78
2022/08/09 12:50:43;;;;;;;4.13;3.83;;;;;;;;;;5077833;28;20032;-80
2022/08/09 12:53:26;;;;;;;4.70;3.67;;;;;;;;;;5074974;28;20089;-80
2022/08/09 12:56:12;;;;;;;8.10;6.10;;;;;;;;;;5073328;28;20123;-81
2022/08/09 12:58:39;;;;;;;9.25;8.30;;;;;;;;;;5068103;28;20071;-82
2022/08/09 13:01:22;;;;;;;5.13;3.05;;;;;;;;;;5077624;28;20028;-79
2022/08/09 13:03:55;;;;;;;3.42;2.75;;;;;;;;;;5071722;28;20036;-82
2022/08/09 13:06:26;;;;;;;3.85;3.17;;;;;;;;;;5082019;28;20440;-78
2022/08/09 13:09:07;;;;;;;4.75;3.10;;;;;;;;;;5091714;28;20526;-79
2022/08/09 13:11:47;;;;;;;5.38;3.20;;;;;;;;;;5088786;28;20363;-80
2022/08/09 13:14:14;;;;;;;4.10;3.30;;;;;;;;;;5073667;28;20040;-80
2022/08/09 13:16:51;;;;;;;5.00;3.67;;;;;;;;;;5078547;28;20051;-80
2022/08/09 13:19:35;;;;;;;4.55;2.95;;;;;;;;;;5081238;28;20032;-82
2022/08/09 13:22:20;;;;;;;4.45;3.03;;;;;;;;;;5080817;28;20062;-85
2022/08/09 13:24:55;;;;;;;6.00;3.38;;;;;;;;;;5091279;28;20093;-79
2022/08/09 13:27:28;;;;;;;3.38;2.92;;;;;;;;;;5090093;28;20028;-80
2022/08/09 13:29:55;;;;;;;;;;;;;;;;;;5085211;28;20039;-82
2022/08/09 13:32:21;;;;;;;5.30;3.15;;;;;;;;;;5085386;28;19969;-81
2022/08/09 13:34:48;;;;;;;3.17;2.75;;;;;;;;;;5087258;28;20118;-76
2022/08/09 13:37:15;;;;;;;4.00;3.22;;;;;;;;;;5092632;28;20024;-78
2022/08/09 13:39:42;;;;;;;5.00;2.88;;;;;;;;;;5074897;28;20082;-80
2022/08/09 13:42:12;;;;;;;4.53;2.70;;;;;;;;;;5074962;28;20471;-79
2022/08/09 13:44:39;;;;;;;3.30;2.63;;;;;;;;;;5080489;28;20475;-79
2022/08/09 13:47:06;;;;;;;3.85;2.85;;;;;;;;;;5094881;28;20436;-78
2022/08/09 13:49:36;;;;;;;3.63;2.70;;;;;;;;;;5095358;28;20039;-80
2022/08/09 13:52:02;;;;;;;3.55;2.53;;;;;;;;;;5090010;28;20034;-78
2022/08/09 13:54:28;;;;;;;4.40;2.55;;;;;;;;;;5084004;28;20122;-78
2022/08/09 13:56:54;;;;;;;7.03;4.55;;;;;;;;;;5078956;28;20502;-78
2022/08/09 13:59:20;;;;;;;6.10;5.25;;;;;;;;;;5074637;28;20032;-79
2022/08/09 14:01:46;;;;;;;4.20;3.60;;;;;;;;;;5074661;28;20467;-78
2022/08/09 14:04:12;;;;;;;4.90;4.28;;;;;;;;;;5085787;28;20035;-78
2022/08/09 14:06:39;;;;;;;3.95;2.90;;;;;;;;;;5080810;28;20032;-79
2022/08/09 14:09:06;;;;;;;4.18;2.70;;;;;;;;;;5079357;28;20025;-78
2022/08/09 14:11:32;;;;;;;3.13;2.85;;;;;;;;;;5084667;28;20040;-79
2022/08/09 14:13:58;;;;;;;4.20;3.80;;;;;;;;;;5084014;28;20403;-78
2022/08/09 14:16:26;;;;;;;3.20;2.90;;;;;;;;;;5075684;28;20077;-78
2022/08/09 14:18:52;;;;;;;3.42;2.75;;;;;;;;;;5074172;28;20038;-78
2022/08/09 14:21:22;;;;;;;1.95;1.75;;;;;;;;;;5084255;28;20027;-78
2022/08/09 14:23:50;;;;;;;4.13;2.45;;;;;;;;;;5074244;28;20055;-79
2022/08/09 14:26:17;;;;;;;4.65;2.63;;;;;;;;;;5074205;28;20040;-78
2022/08/09 14:28:43;;;;;;;3.80;2.40;;;;;;;;;;5074275;28;20097;-78
2022/08/09 14:31:09;;;;;;;2.83;2.33;;;;;;;;;;5072681;28;20029;-78
2022/08/09 14:33:36;;;;;;;2.88;2.28;;;;;;;;;;5080977;28;20028;-78
2022/08/09 14:36:02;;;;;;;4.65;2.25;;;;;;;;;;5082935;28;20124;-80
2022/08/09 14:38:28;;;;;;;3.45;2.50;;;;;;;;;;5080121;28;20024;-78
2022/08/09 14:40:54;;;;;;;3.53;2.50;;;;;;;;;;5080462;28;20032;-78
2022/08/09 14:43:20;;;;;;;5.80;2.15;;;;;;;;;;5079736;28;20111;-79
2022/08/09 14:45:46;;;;;;;2.47;2.13;;;;;;;;;;5078353;28;20036;-79
2022/08/09 14:48:12;;;;;;;3.08;2.22;;;;;;;;;;5113645;28;20051;-79
2022/08/09 14:50:39;;;;;;;3.70;2.72;;;;;;;;;;5098588;28;20032;-80
2022/08/09 14:53:13;;;;;;;2.55;2.35;;;;;;;;;;5077385;28;20036;-79
2022/08/09 14:55:42;;;;;;;3.38;3.00;;;;;;;;;;5083849;28;20035;-79
2022/08/09 14:58:11;;;;;;;5.53;5.03;;;;;;;;;;5075690;28;20029;-79
2022/08/09 15:00:38;;;;;;;3.40;2.90;;;;;;;;;;5092811;28;20036;-79
2022/08/09 15:03:08;;;;;;;3.35;2.58;;;;;;;;;;5093362;28;20024;-79
2022/08/09 15:05:34;;;;;;;4.78;2.53;;;;;;;;;;5093698;28;20027;-79
2022/08/09 15:08:00;;;;;;;6.20;4.93;;;;;;;;;;5092204;28;20103;-79
2022/08/09 15:10:27;;;;;;;3.75;3.17;;;;;;;;;;5094000;28;20458;-79
2022/08/09 15:12:54;;;;;;;3.50;3.20;;;;;;;;;;5093487;28;20034;-79